createdAt,value
2022-09-02T00:01:29.528Z,98286.63
2022-09-02T00:03:31.306Z,98287.53
2022-09-02T00:05:32.822Z,98289.25
2022-09-02T00:07:34.139Z,98285.88
2022-09-02T00:09:37.589Z,98285.03
2022-09-02T00:11:39.008Z,98285.03
2022-09-02T00:13:40.684Z,98284.22
2022-09-02T00:15:42.000Z,98279.97
2022-09-02T00:17:43.309Z,98285.19
2022-09-02T00:19:44.670Z,98279.22
2022-09-02T00:21:45.991Z,98275.03
2022-09-02T00:23:47.321Z,98276.72
2022-09-02T00:25:48.653Z,98280.19
2022-09-02T00:27:49.971Z,98272.56
2022-09-02T00:29:51.304Z,98271.72
2022-09-02T00:31:52.699Z,98271.72
2022-09-02T00:33:54.520Z,98266.59
2022-09-02T00:35:55.880Z,98289.59
2022-09-02T00:37:57.273Z,98267.47
2022-09-02T00:39:58.658Z,98266.63
2022-09-02T00:42:01.450Z,98262.41
2022-09-02T00:44:03.513Z,98262.41
2022-09-02T00:46:04.898Z,98273.47
2022-09-02T00:48:06.258Z,98266.69
2022-09-02T00:50:07.617Z,98266.72
2022-09-02T00:52:08.996Z,98270.13
2022-09-02T00:54:11.908Z,98265.91
2022-09-02T00:56:13.263Z,98271.88
2022-09-02T00:58:14.606Z,98264.25
2022-09-02T01:00:18.727Z,98271.91
2022-09-02T01:02:24.110Z,98263.38
2022-09-02T01:04:26.160Z,98265.97
2022-09-02T01:06:27.553Z,98266.81
2022-09-02T01:08:30.003Z,98263.47
2022-09-02T01:10:34.429Z,98263.47
2022-09-02T01:12:36.006Z,98261.75
2022-09-02T01:14:37.324Z,98269.44
2022-09-02T01:16:38.698Z,98265.22
2022-09-02T01:18:44.348Z,98272.03
2022-09-02T01:20:45.667Z,98265.22
2022-09-02T01:22:46.984Z,98266.94
2022-09-02T01:24:48.524Z,98267.81
2022-09-02T01:26:49.871Z,98272.13
2022-09-02T01:28:51.247Z,98266.16
2022-09-02T01:30:52.613Z,98270.41
2022-09-02T01:32:53.971Z,98268.66
2022-09-02T01:34:55.281Z,98268.53
2022-09-02T01:36:56.607Z,98268.47
2022-09-02T01:38:57.942Z,98266.75
2022-09-02T01:40:59.327Z,98267.63
2022-09-02T01:43:00.731Z,98260.81
2022-09-02T01:45:02.064Z,98271.06
2022-09-02T01:47:03.442Z,98274.47
2022-09-02T01:49:04.843Z,98260.84
2022-09-02T01:51:06.296Z,98259.09
2022-09-02T01:53:08.020Z,98263.41
2022-09-02T01:55:09.347Z,98254.91
2022-09-02T01:57:10.709Z,98260.06
2022-09-02T01:59:17.700Z,98254.06
2022-09-02T02:01:19.094Z,98254.84
2022-09-02T02:03:20.535Z,98253.19
2022-09-02T02:05:22.460Z,98261.72
2022-09-02T02:07:24.848Z,98249.78
2022-09-02T02:09:26.168Z,98248.94
2022-09-02T02:11:27.535Z,98242.97
2022-09-02T02:13:28.907Z,98242.97
2022-09-02T02:17:30.393Z,98248.91
2022-09-02T02:19:31.743Z,98248.09
2022-09-02T02:21:33.804Z,98241.28
2022-09-02T02:23:35.112Z,98238.66
2022-09-02T02:25:36.899Z,98243.00
2022-09-02T02:27:38.226Z,98249.88
2022-09-02T02:29:39.538Z,98242.25
2022-09-02T02:31:40.928Z,98240.56
2022-09-02T02:33:42.359Z,98241.38
2022-09-02T02:35:43.731Z,98249.91
2022-09-02T02:37:46.030Z,98248.22
2022-09-02T02:39:47.407Z,98241.47
2022-09-02T02:41:48.743Z,98244.03
2022-09-02T02:43:50.141Z,98242.34
2022-09-02T02:45:51.994Z,98244.03
2022-09-02T02:47:54.544Z,98241.47
2022-09-02T02:49:55.928Z,98238.91
2022-09-02T02:51:57.240Z,98240.63
2022-09-02T02:53:59.106Z,98071.50
2022-09-02T02:56:00.522Z,98242.38
2022-09-02T02:58:01.889Z,98238.13
2022-09-02T03:00:03.402Z,98242.41
2022-09-02T03:02:04.822Z,98237.28
2022-09-02T03:04:06.307Z,98230.47
2022-09-02T03:06:07.631Z,98229.66
2022-09-02T03:08:08.955Z,98232.22
2022-09-02T03:10:10.407Z,98226.25
2022-09-02T03:12:11.724Z,98231.38
2022-09-02T03:14:13.026Z,98228.81
2022-09-02T03:16:14.406Z,98233.88
2022-09-02T03:18:15.734Z,98232.13
2022-09-02T03:20:17.068Z,98237.28
2022-09-02T03:22:18.445Z,98227.13
2022-09-02T03:24:19.915Z,98228.81
2022-09-02T03:26:21.238Z,98227.16
2022-09-02T03:28:22.652Z,98228.81
2022-09-02T03:30:25.202Z,98220.31
2022-09-02T03:32:30.642Z,98228.81
2022-09-02T03:34:32.091Z,98227.97
2022-09-02T03:36:33.802Z,98107.69
2022-09-02T03:38:35.112Z,98214.34
2022-09-02T03:40:36.481Z,98225.38
2022-09-02T03:42:38.492Z,98216.81
2022-09-02T03:44:41.714Z,98213.41
2022-09-02T03:46:43.020Z,98220.16
2022-09-02T03:48:44.695Z,98217.59
2022-09-02T03:50:47.330Z,98215.94
2022-09-02T03:52:48.673Z,98212.50
2022-09-02T03:54:50.235Z,98209.13
2022-09-02T03:56:51.570Z,98061.97
2022-09-02T03:58:53.559Z,98216.00
2022-09-02T04:00:54.864Z,98210.88
2022-09-02T04:02:56.243Z,98219.41
2022-09-02T04:04:57.627Z,98213.44
2022-09-02T04:06:58.943Z,98210.88
2022-09-02T04:09:00.280Z,98217.59
2022-09-02T04:11:01.624Z,98228.63
2022-09-02T04:13:02.939Z,98209.94
2022-09-02T04:15:04.252Z,98212.50
2022-09-02T04:17:05.598Z,98211.69
2022-09-02T04:19:06.977Z,98215.84
2022-09-02T04:21:08.283Z,98211.63
2022-09-02T04:23:09.623Z,98215.16
2022-09-02T04:25:11.011Z,98216.94
2022-09-02T04:27:12.328Z,98211.88
2022-09-02T04:29:13.750Z,98221.25
2022-09-02T04:31:15.105Z,98222.09
2022-09-02T04:33:16.450Z,98217.91
2022-09-02T04:35:17.772Z,98213.66
2022-09-02T04:37:19.098Z,98215.34
2022-09-02T04:39:20.908Z,98215.38
2022-09-02T04:41:22.960Z,98211.97
2022-09-02T04:43:25.127Z,98221.31
2022-09-02T04:45:29.780Z,98211.16
2022-09-02T04:47:31.337Z,98223.03
2022-09-02T04:49:33.485Z,98224.75
2022-09-02T04:51:34.895Z,98264.56
2022-09-02T04:53:36.316Z,98227.00
2022-09-02T04:55:37.700Z,98225.31
2022-09-02T04:57:39.452Z,98226.06
2022-09-02T04:59:40.854Z,98232.13
2022-09-02T05:01:42.900Z,98237.31
2022-09-02T05:03:44.758Z,98234.78
2022-09-02T05:05:46.579Z,98239.91
2022-09-02T05:07:47.916Z,98242.47
2022-09-02T05:09:50.573Z,98239.94
2022-09-02T05:11:52.271Z,98239.91
2022-09-02T05:13:53.634Z,98240.78
2022-09-02T05:15:54.991Z,98238.22
2022-09-02T05:17:56.407Z,98243.25
2022-09-02T05:19:57.724Z,98239.81
2022-09-02T05:21:59.347Z,98238.09
2022-09-02T05:24:00.973Z,98238.97
2022-09-02T05:26:03.323Z,98235.44
2022-09-02T05:28:04.639Z,98230.31
2022-09-02T05:30:05.996Z,98231.19
2022-09-02T05:32:08.256Z,98235.50
2022-09-02T05:34:09.688Z,98235.72
2022-09-02T05:36:12.552Z,98239.31
2022-09-02T05:38:14.779Z,98235.16
2022-09-02T05:40:16.211Z,98230.97
2022-09-02T05:42:24.844Z,98232.72
2022-09-02T05:44:26.238Z,98236.19
2022-09-02T05:46:27.634Z,98238.78
2022-09-02T05:48:47.887Z,98236.25
2022-09-02T05:50:50.260Z,98232.03
2022-09-02T05:52:58.840Z,98235.47
2022-09-02T05:55:00.711Z,98232.09
2022-09-02T05:57:02.071Z,98233.81
2022-09-02T05:59:03.492Z,98240.66
2022-09-02T06:01:04.939Z,98234.72
2022-09-02T06:03:06.323Z,98230.44
2022-09-02T06:05:12.150Z,98239.00
2022-09-02T06:07:13.876Z,98239.00
2022-09-02T06:09:15.306Z,98229.69
2022-09-02T06:11:17.981Z,98238.19
2022-09-02T06:13:22.669Z,98228.84
2022-09-02T06:15:27.657Z,98233.13
2022-09-02T06:17:29.047Z,98235.66
2022-09-02T06:19:30.559Z,98239.09
2022-09-02T06:21:31.866Z,98234.84
2022-09-02T06:23:33.229Z,98230.63
2022-09-02T06:25:34.554Z,98235.72
2022-09-02T06:27:36.755Z,98236.59
2022-09-02T06:29:38.070Z,98232.34
2022-09-02T06:31:39.374Z,98230.69
2022-09-02T06:33:40.692Z,98229.81
2022-09-02T06:35:42.104Z,98230.69
2022-09-02T06:37:43.539Z,98232.38
2022-09-02T06:39:46.727Z,98234.13
2022-09-02T06:41:49.032Z,98234.97
2022-09-02T06:43:50.626Z,98227.31
2022-09-02T06:45:52.011Z,98231.56
2022-09-02T06:47:53.451Z,98231.59
2022-09-02T06:49:54.778Z,98226.50
2022-09-02T06:51:56.886Z,98227.38
2022-09-02T06:53:58.254Z,98234.16
2022-09-02T06:55:59.641Z,98233.34
2022-09-02T06:58:00.965Z,98237.59
2022-09-02T07:00:03.587Z,98228.25
2022-09-02T07:02:05.127Z,98235.91
2022-09-02T07:04:25.331Z,98230.81
2022-09-02T07:06:27.590Z,98235.06
2022-09-02T07:08:28.935Z,98237.59
2022-09-02T07:10:30.327Z,98241.03
2022-09-02T07:12:31.862Z,98235.94
2022-09-02T07:14:33.280Z,98233.47
2022-09-02T07:16:34.725Z,98259.75
2022-09-02T07:18:36.630Z,98233.28
2022-09-02T07:20:38.183Z,98239.75
2022-09-02T07:22:39.582Z,98234.81
2022-09-02T07:24:40.927Z,98241.38
2022-09-02T07:26:42.284Z,98243.09
2022-09-02T07:28:43.707Z,98240.44
2022-09-02T07:30:45.072Z,98246.88
2022-09-02T07:32:46.440Z,98251.72
2022-09-02T07:34:47.803Z,98247.34
2022-09-02T07:36:49.223Z,98244.66
2022-09-02T07:38:50.605Z,98248.00
2022-09-02T07:40:57.306Z,98243.69
2022-09-02T07:42:58.722Z,98255.53
2022-09-02T07:45:00.079Z,98240.84
2022-09-02T07:47:01.557Z,98246.88
2022-09-02T07:49:04.187Z,98246.16
2022-09-02T07:51:06.071Z,98243.63
2022-09-02T07:53:07.522Z,98252.19
2022-09-02T07:55:13.981Z,98249.66
2022-09-02T07:57:16.207Z,98241.97
2022-09-02T07:59:18.046Z,98245.34
2022-09-02T08:01:23.575Z,98246.19
2022-09-02T08:03:25.159Z,98242.78
2022-09-02T08:05:26.490Z,98242.78
2022-09-02T08:07:27.828Z,98254.69
2022-09-02T08:09:29.211Z,98248.75
2022-09-02T08:11:32.717Z,98243.63
2022-09-02T08:13:34.123Z,98244.47
2022-09-02T08:15:35.974Z,98249.53
2022-09-02T08:17:37.387Z,98250.22
2022-09-02T08:19:38.704Z,98248.56
2022-09-02T08:21:40.045Z,98244.41
2022-09-02T08:23:41.616Z,98246.19
2022-09-02T08:25:43.233Z,98245.38
2022-09-02T08:27:44.615Z,98243.72
2022-09-02T08:29:45.991Z,98239.47
2022-09-02T08:31:48.651Z,98241.19
2022-09-02T08:33:52.099Z,98236.88
2022-09-02T08:35:53.464Z,98237.75
2022-09-02T08:37:54.843Z,98236.06
2022-09-02T08:39:56.203Z,98251.41
2022-09-02T08:41:57.692Z,98248.03
2022-09-02T08:43:59.067Z,98245.44
2022-09-02T08:46:00.475Z,98248.00
2022-09-02T08:48:01.832Z,98245.44
2022-09-02T08:50:03.158Z,98246.28
2022-09-02T08:52:04.502Z,98247.13
2022-09-02T08:54:05.889Z,98247.13
2022-09-02T08:56:07.216Z,98239.44
2022-09-02T08:58:08.549Z,98249.66
2022-09-02T09:00:09.939Z,98235.22
2022-09-02T09:02:11.308Z,98231.78
2022-09-02T09:04:18.558Z,98233.47
2022-09-02T09:06:19.874Z,98232.63
2022-09-02T09:08:21.886Z,98227.47
2022-09-02T09:10:23.407Z,98225.75
2022-09-02T09:12:24.782Z,98230.88
2022-09-02T09:14:26.121Z,98236.88
2022-09-02T09:16:27.808Z,98235.22
2022-09-02T09:18:34.912Z,98232.63
2022-09-02T09:20:36.427Z,98230.03
2022-09-02T09:22:37.752Z,98225.75
2022-09-02T09:24:39.111Z,98230.00
2022-09-02T09:26:40.965Z,98223.19
2022-09-02T09:28:43.525Z,98223.19
2022-09-02T09:30:44.843Z,98226.59
2022-09-02T09:32:46.499Z,98224.88
2022-09-02T09:34:49.209Z,98217.19
2022-09-02T09:36:51.441Z,98217.19
2022-09-02T09:38:52.783Z,98212.09
2022-09-02T09:40:54.221Z,98218.06
2022-09-02T09:42:56.889Z,98212.09
2022-09-02T09:44:58.491Z,98215.69
2022-09-02T09:46:59.838Z,98215.69
2022-09-02T09:49:01.173Z,98207.91
2022-09-02T09:51:02.505Z,98209.53
2022-09-02T09:53:03.894Z,98204.44
2022-09-02T09:55:05.212Z,98204.44
2022-09-02T09:57:06.520Z,98205.25
2022-09-02T09:59:07.855Z,98209.50
2022-09-02T10:01:09.211Z,98198.44
2022-09-02T10:03:10.887Z,98214.56
2022-09-02T10:05:12.367Z,98202.63
2022-09-02T10:07:13.819Z,98195.78
2022-09-02T10:09:15.169Z,98206.78
2022-09-02T10:11:16.484Z,98204.47
2022-09-02T10:15:24.270Z,98201.41
2022-09-02T10:17:25.590Z,98196.38
2022-09-02T10:19:26.951Z,98193.66
2022-09-02T10:21:28.275Z,98190.06
2022-09-02T10:23:29.585Z,98191.84
2022-09-02T10:25:30.964Z,98183.56
2022-09-02T10:27:32.343Z,98189.59
2022-09-02T10:29:33.876Z,98181.97
2022-09-02T10:31:35.204Z,98182.88
2022-09-02T10:33:36.603Z,98180.41
2022-09-02T10:35:37.923Z,98178.72
2022-09-02T10:37:39.279Z,98177.91
2022-09-02T10:39:40.587Z,98176.09
2022-09-02T10:43:56.877Z,98177.44
2022-09-02T10:45:58.966Z,98184.44
2022-09-02T10:48:00.325Z,98187.06
2022-09-02T10:50:01.687Z,98182.91
2022-09-02T10:52:04.631Z,98187.22
2022-09-02T10:54:09.709Z,98180.44
2022-09-02T10:56:11.868Z,98183.91
2022-09-02T10:58:13.263Z,98179.66
2022-09-02T11:00:14.600Z,98177.09
2022-09-02T11:02:15.956Z,98178.00
2022-09-02T11:04:17.317Z,98179.75
2022-09-02T11:06:26.219Z,98173.00
2022-09-02T11:08:33.024Z,98173.00
2022-09-02T11:10:34.456Z,98172.16
2022-09-02T11:12:35.797Z,98165.38
2022-09-02T11:14:37.234Z,98163.69
2022-09-02T11:16:39.874Z,98167.03
2022-09-02T11:18:43.743Z,98160.25
2022-09-02T11:20:46.536Z,98164.47
2022-09-02T11:22:47.919Z,98165.34
2022-09-02T11:24:49.265Z,98157.69
2022-09-02T11:26:50.732Z,98163.69
2022-09-02T11:28:52.057Z,98159.44
2022-09-02T11:30:53.376Z,98165.44
2022-09-02T11:32:54.735Z,98155.28
2022-09-02T11:34:56.047Z,98153.47
2022-09-02T11:36:57.391Z,98156.69
2022-09-02T11:38:58.726Z,98149.66
2022-09-02T11:43:22.841Z,98148.06
2022-09-02T11:45:24.233Z,98155.56
2022-09-02T11:47:25.598Z,98147.84
2022-09-02T11:49:27.317Z,98155.38
2022-09-02T11:51:28.689Z,98145.91
2022-09-02T11:53:30.079Z,98142.53
2022-09-02T11:55:31.386Z,98142.75
2022-09-02T11:57:32.935Z,98151.41
2022-09-02T11:59:34.636Z,98150.63
2022-09-02T12:01:35.935Z,98149.03
2022-09-02T12:04:06.868Z,98158.44
2022-09-02T12:06:05.666Z,98155.94
2022-09-02T12:08:07.238Z,98159.38
2022-09-02T12:10:09.035Z,98154.31
2022-09-02T12:12:11.908Z,98154.34
2022-09-02T12:14:13.666Z,98159.44
2022-09-02T12:16:23.995Z,98150.97
2022-09-02T12:18:27.953Z,98156.09
2022-09-02T12:20:29.294Z,98155.19
2022-09-02T12:22:30.602Z,98147.47
2022-09-02T12:24:32.953Z,98150.06
2022-09-02T12:26:34.756Z,98144.97
2022-09-02T12:28:36.063Z,98139.03
2022-09-02T12:30:37.388Z,98131.47
2022-09-02T12:32:38.740Z,98126.19
2022-09-02T12:34:40.045Z,98126.16
2022-09-02T12:36:42.341Z,98136.41
2022-09-02T12:38:44.014Z,98127.13
2022-09-02T12:40:45.474Z,98122.91
2022-09-02T12:42:48.392Z,98118.50
2022-09-02T12:44:49.942Z,98120.88
2022-09-02T12:46:51.450Z,98107.38
2022-09-02T12:48:52.855Z,98120.94
2022-09-02T12:50:55.206Z,98105.25
2022-09-02T12:52:56.514Z,98112.69
2022-09-02T12:54:57.814Z,98109.13
2022-09-02T12:56:59.952Z,98108.25
2022-09-02T12:59:02.884Z,98105.06
2022-09-02T13:01:05.551Z,98100.16
2022-09-02T13:03:06.884Z,98101.78
2022-09-02T13:05:08.534Z,98093.00
2022-09-02T13:07:09.868Z,98110.13
2022-09-02T13:09:11.485Z,98098.25
2022-09-02T13:11:12.859Z,98094.06
2022-09-02T13:13:14.294Z,98091.41
2022-09-02T13:15:17.454Z,98094.06
2022-09-02T13:17:37.321Z,98093.28
2022-09-02T13:19:38.820Z,98088.28
2022-09-02T13:21:41.136Z,98086.59
2022-09-02T13:23:42.451Z,98080.66
2022-09-02T13:25:43.792Z,98085.78
2022-09-02T13:27:45.107Z,98084.75
2022-09-02T13:29:46.418Z,98089.03
2022-09-02T13:31:48.015Z,98092.44
2022-09-02T13:33:50.337Z,98079.72
2022-09-02T13:35:51.652Z,98085.63
2022-09-02T13:37:53.112Z,98081.19
2022-09-02T13:39:54.479Z,98083.69
2022-09-02T13:41:57.372Z,98078.44
2022-09-02T13:43:58.727Z,98077.66
2022-09-02T13:46:00.195Z,98081.09
2022-09-02T13:48:01.579Z,98070.88
2022-09-02T13:50:02.940Z,98068.28
2022-09-02T13:52:05.247Z,98066.50
2022-09-02T13:54:22.619Z,98075.06
2022-09-02T13:56:25.086Z,98052.97
2022-09-02T13:58:26.983Z,98057.25
2022-09-02T14:00:28.413Z,98052.06
2022-09-02T14:02:29.884Z,98046.91
2022-09-02T14:04:33.326Z,98056.28
2022-09-02T14:06:36.618Z,98054.53
2022-09-02T14:08:37.949Z,98058.75
2022-09-02T14:10:39.522Z,98050.28
2022-09-02T14:12:40.922Z,98045.09
2022-09-02T14:14:42.243Z,98048.50
2022-09-02T14:16:43.540Z,98048.44
2022-09-02T14:18:44.863Z,98049.31
2022-09-02T14:20:46.187Z,98050.22
2022-09-02T14:22:47.531Z,98047.72
2022-09-02T14:24:48.871Z,98045.97
2022-09-02T14:26:50.222Z,98045.06
2022-09-02T14:28:51.576Z,98051.84
2022-09-02T14:30:52.914Z,98044.19
2022-09-02T14:32:56.010Z,98045.06
2022-09-02T14:34:57.394Z,98038.28
2022-09-02T14:36:58.707Z,98041.66
2022-09-02T14:39:00.032Z,98040.78
2022-09-02T14:41:01.399Z,98036.53
2022-09-02T14:43:02.842Z,98041.66
2022-09-02T14:45:05.694Z,98032.34
2022-09-02T14:47:07.068Z,98031.47
2022-09-02T14:49:09.148Z,98039.22
2022-09-02T14:51:10.460Z,98037.53
2022-09-02T14:53:11.833Z,98039.22
2022-09-02T14:55:13.191Z,98042.63
2022-09-02T14:57:14.505Z,98038.38
2022-09-02T14:59:15.854Z,98037.53
2022-09-02T15:01:17.373Z,98036.72
2022-09-02T15:03:18.758Z,98036.75
2022-09-02T15:05:22.141Z,98029.91
2022-09-02T15:07:23.498Z,98032.47
2022-09-02T15:09:25.050Z,98030.81
2022-09-02T15:11:26.403Z,98033.34
2022-09-02T15:13:27.882Z,98025.75
2022-09-02T15:15:29.303Z,98033.44
2022-09-02T15:17:31.008Z,98036.88
2022-09-02T15:19:33.276Z,98037.84
2022-09-02T15:21:34.639Z,98026.72
2022-09-02T15:23:41.107Z,98042.97
2022-09-02T15:25:42.748Z,98049.72
2022-09-02T15:27:44.071Z,98036.78
2022-09-02T15:29:45.375Z,98038.38
2022-09-02T15:31:46.714Z,98031.44
2022-09-02T15:33:48.030Z,98041.19
2022-09-02T15:35:49.591Z,98026.44
2022-09-02T15:37:51.074Z,98023.63
2022-09-02T15:39:52.426Z,98026.13
2022-09-02T15:41:55.376Z,98032.03
2022-09-02T15:43:56.787Z,98049.13
2022-09-02T15:45:58.139Z,98028.06
2022-09-02T15:47:59.610Z,98034.41
2022-09-02T15:50:00.930Z,98028.56
2022-09-02T15:52:03.026Z,98033.28
2022-09-02T15:54:04.366Z,98025.47
2022-09-02T15:56:05.712Z,98031.47
2022-09-02T15:58:07.035Z,98036.78
2022-09-02T16:00:09.805Z,98027.69
2022-09-02T16:02:12.408Z,98037.78
2022-09-02T16:04:13.767Z,98037.59
2022-09-02T16:06:15.088Z,98031.88
2022-09-02T16:08:16.428Z,98029.31
2022-09-02T16:10:17.754Z,98031.19
2022-09-02T16:12:19.104Z,98043.22
2022-09-02T16:14:21.081Z,98032.50
2022-09-02T16:16:22.700Z,98037.63
2022-09-02T16:18:24.199Z,98035.03
2022-09-02T16:20:25.515Z,98035.44
2022-09-02T16:22:26.839Z,98032.31
2022-09-02T16:24:28.230Z,98029.03
2022-09-02T16:26:29.561Z,98020.66
2022-09-02T16:28:30.965Z,98019.06
2022-09-02T16:30:32.682Z,98033.28
2022-09-02T16:32:34.023Z,98020.88
2022-09-02T16:34:35.347Z,98018.34
2022-09-02T16:36:36.666Z,98012.03
2022-09-02T16:38:38.006Z,98011.69
2022-09-02T16:40:39.348Z,98005.72
2022-09-02T16:42:40.696Z,98008.81
2022-09-02T16:44:42.079Z,98008.78
2022-09-02T16:46:43.477Z,98005.41
2022-09-02T16:48:44.786Z,98010.00
2022-09-02T16:50:46.194Z,98014.34
2022-09-02T16:52:47.506Z,98013.22
2022-09-02T16:54:48.930Z,98010.94
2022-09-02T16:56:50.286Z,98010.34
2022-09-02T16:58:52.623Z,98011.31
2022-09-02T17:00:53.961Z,98005.50
2022-09-02T17:02:55.332Z,98002.16
2022-09-02T17:04:56.807Z,98002.88
2022-09-02T17:06:59.167Z,97999.00
2022-09-02T17:09:00.530Z,97996.75
2022-09-02T17:11:01.874Z,97993.69
2022-09-02T17:13:03.316Z,97997.53
2022-09-02T17:15:05.406Z,97998.41
2022-09-02T17:17:06.780Z,98004.16
2022-09-02T17:19:08.198Z,98001.50
2022-09-02T17:21:09.507Z,98001.69
2022-09-02T17:23:12.035Z,98001.78
2022-09-02T17:25:13.365Z,98002.94
2022-09-02T17:27:14.687Z,98012.72
2022-09-02T17:29:47.120Z,97992.25
2022-09-02T17:31:40.109Z,97996.84
2022-09-02T17:33:41.721Z,97994.50
2022-09-02T17:35:43.049Z,97991.31
2022-09-02T17:37:44.380Z,98005.88
2022-09-02T17:39:46.615Z,98004.41
2022-09-02T17:41:54.265Z,98008.84
2022-09-02T17:43:57.002Z,98004.56
2022-09-02T17:45:58.393Z,98003.78
2022-09-02T17:48:19.061Z,98004.81
2022-09-02T17:50:21.153Z,98003.94
2022-09-02T17:52:22.510Z,98002.25
2022-09-02T17:54:23.858Z,98013.16
2022-09-02T17:56:27.295Z,98006.94
2022-09-02T17:58:29.372Z,97998.38
2022-09-02T18:00:30.688Z,98004.31
2022-09-02T18:02:33.350Z,98006.84
2022-09-02T18:04:34.724Z,98008.44
2022-09-02T18:06:36.027Z,98019.38
2022-09-02T18:08:37.758Z,98011.75
2022-09-02T18:10:39.102Z,98017.66
2022-09-02T18:12:40.417Z,98020.09
2022-09-02T18:14:41.771Z,98020.16
2022-09-02T18:16:49.452Z,98021.00
2022-09-02T18:18:52.736Z,98022.72
2022-09-02T18:20:54.138Z,98027.03
2022-09-02T18:22:55.478Z,98025.28
2022-09-02T18:24:56.806Z,98027.13
2022-09-02T18:26:58.124Z,98027.06
2022-09-02T18:28:59.658Z,98032.19
2022-09-02T18:31:01.062Z,98033.88
2022-09-02T18:33:02.901Z,98030.59
2022-09-02T18:35:04.376Z,98036.56
2022-09-02T18:37:06.264Z,98038.91
2022-09-02T18:39:07.611Z,98039.38
2022-09-02T18:41:08.924Z,98037.28
2022-09-02T18:43:10.936Z,98042.50
2022-09-02T18:45:13.350Z,98035.72
2022-09-02T18:47:14.969Z,98042.53
2022-09-02T18:49:16.369Z,98050.22
2022-09-02T18:51:17.926Z,98050.44
2022-09-02T18:53:19.251Z,98046.03
2022-09-02T18:55:20.607Z,98050.25
2022-09-02T18:57:21.969Z,97703.81
2022-09-02T18:59:28.548Z,98048.72
2022-09-02T19:01:30.463Z,98047.88
2022-09-02T19:03:31.884Z,98041.91
2022-09-02T19:05:33.775Z,98042.03
2022-09-02T19:07:53.597Z,98041.69
2022-09-02T19:09:56.691Z,98045.97
2022-09-02T19:12:06.201Z,98049.94
2022-09-02T19:14:13.447Z,98047.25
2022-09-02T19:16:15.275Z,98047.19
2022-09-02T19:18:16.636Z,98041.19
2022-09-02T19:20:18.781Z,98043.69
2022-09-02T19:22:20.205Z,98047.78
2022-09-02T19:24:24.212Z,98036.78
2022-09-02T19:26:25.526Z,98037.59
2022-09-02T19:28:29.158Z,98037.38
2022-09-02T19:30:36.084Z,98031.25
2022-09-02T19:32:40.064Z,98029.50
2022-09-02T19:34:42.025Z,98029.38
2022-09-02T19:36:43.386Z,98023.25
2022-09-02T19:38:44.678Z,98025.66
2022-09-02T19:40:49.532Z,98026.38
2022-09-02T19:42:54.289Z,98030.50
2022-09-02T19:44:56.070Z,98026.28
2022-09-02T19:47:49.704Z,98035.47
2022-09-02T19:49:18.684Z,98031.97
2022-09-02T19:51:22.126Z,98031.91
2022-09-02T19:53:30.141Z,98033.97
2022-09-02T19:55:33.818Z,98038.34
2022-09-02T19:57:35.253Z,98033.81
2022-09-02T19:59:36.569Z,98052.75
2022-09-02T20:01:37.972Z,98038.50
2022-09-02T20:03:39.646Z,98036.94
2022-09-02T20:05:40.970Z,98029.34
2022-09-02T20:07:42.412Z,98034.59
2022-09-02T20:09:44.023Z,98034.31
2022-09-02T20:11:48.250Z,98027.88
2022-09-02T20:13:52.777Z,98027.56
2022-09-02T20:15:54.163Z,98038.50
2022-09-02T20:17:55.567Z,98028.97
2022-09-02T20:20:00.191Z,98032.31
2022-09-02T20:22:01.791Z,98024.66
2022-09-02T20:24:03.100Z,98031.97
2022-09-02T20:26:04.435Z,98020.75
2022-09-02T20:28:06.072Z,98034.47
2022-09-02T20:30:08.526Z,98036.72
2022-09-02T20:32:09.980Z,98042.97
2022-09-02T20:34:11.816Z,98040.56
2022-09-02T20:36:14.068Z,98038.25
2022-09-02T20:38:15.420Z,98032.50
2022-09-02T20:40:16.819Z,98031.47
2022-09-02T20:42:18.133Z,98034.22
2022-09-02T20:44:20.527Z,98036.91
2022-09-02T20:46:25.019Z,98035.13
2022-09-02T20:48:28.025Z,98035.13
2022-09-02T20:50:29.337Z,98036.06
2022-09-02T20:52:31.326Z,98040.44
2022-09-02T20:54:32.718Z,98037.41
2022-09-02T20:56:34.040Z,98031.75
2022-09-02T20:58:36.567Z,98030.69
2022-09-02T21:00:37.965Z,98023.75
2022-09-02T21:02:41.361Z,98033.88
2022-09-02T21:04:42.769Z,98026.81
2022-09-02T21:06:44.255Z,98032.03
2022-09-02T21:08:47.086Z,98046.59
2022-09-02T21:10:48.985Z,98033.03
2022-09-02T21:12:50.319Z,98039.84
2022-09-02T21:14:51.661Z,98031.00
2022-09-02T21:16:52.962Z,98037.59
2022-09-02T21:18:54.262Z,98041.25
2022-09-02T21:20:55.568Z,98041.75
2022-09-02T21:22:56.983Z,98037.59
2022-09-02T21:24:58.302Z,98036.75
2022-09-02T21:26:59.643Z,98040.81
2022-09-02T21:29:00.981Z,98043.59
2022-09-02T21:31:02.350Z,98037.59
2022-09-02T21:33:04.914Z,98039.25
2022-09-02T21:35:06.223Z,98050.88
2022-09-02T21:37:07.539Z,98049.94
2022-09-02T21:39:08.851Z,98053.53
2022-09-02T21:41:10.152Z,98052.75
2022-09-02T21:43:11.446Z,98045.25
2022-09-02T21:45:12.755Z,98056.47
2022-09-02T21:47:15.362Z,98048.03
2022-09-02T21:49:16.662Z,98044.69
2022-09-02T21:51:17.988Z,98045.63
2022-09-02T21:53:19.423Z,98043.13
2022-09-02T21:55:20.727Z,98040.69
2022-09-02T21:57:22.156Z,98039.91
2022-09-02T21:59:23.492Z,98039.97
2022-09-02T22:01:24.878Z,98045.13
2022-09-02T22:03:29.387Z,98056.22
2022-09-02T22:05:30.724Z,98050.31
2022-09-02T22:07:32.019Z,98057.16
2022-09-02T22:09:33.369Z,98054.69
2022-09-02T22:11:37.227Z,98052.16
2022-09-02T22:13:40.769Z,98052.22
2022-09-02T22:15:42.626Z,98056.50
2022-09-02T22:17:45.869Z,98053.19
2022-09-02T22:19:54.034Z,98054.03
2022-09-02T22:21:55.334Z,98054.06
2022-09-02T22:23:56.927Z,98049.84
2022-09-02T22:25:58.543Z,98047.34
2022-09-02T22:27:59.846Z,98048.22
2022-09-02T22:30:01.179Z,98047.41
2022-09-02T22:32:02.499Z,98048.31
2022-09-02T22:34:03.810Z,98035.56
2022-09-02T22:36:05.150Z,98045.00
2022-09-02T22:38:09.613Z,98035.63
2022-09-02T22:40:10.967Z,98041.59
2022-09-02T22:42:12.275Z,98035.63
2022-09-02T22:44:13.619Z,98036.47
2022-09-02T22:46:33.760Z,98037.38
2022-09-02T22:48:53.863Z,98040.84
2022-09-02T22:51:18.460Z,98033.19
2022-09-02T22:53:20.390Z,98028.94
2022-09-02T22:55:21.755Z,98030.63
2022-09-02T22:57:23.075Z,98033.25
2022-09-02T22:59:24.491Z,98031.56
2022-09-02T23:01:25.935Z,98029.03
2022-09-02T23:03:27.314Z,98023.94
2022-09-02T23:05:49.344Z,98026.50
2022-09-02T23:07:50.654Z,98041.75
2022-09-02T23:09:54.849Z,98022.13
2022-09-02T23:12:02.223Z,98016.09
2022-09-02T23:14:09.159Z,98020.47
2022-09-02T23:16:11.855Z,98018.53
2022-09-02T23:18:13.282Z,98019.44
2022-09-02T23:20:14.787Z,98010.97
2022-09-02T23:22:17.502Z,98017.81
2022-09-02T23:24:19.814Z,98005.88
2022-09-02T23:26:21.114Z,98012.75
2022-09-02T23:28:28.182Z,98006.75
2022-09-02T23:30:29.482Z,98004.22
2022-09-02T23:32:31.977Z,98000.84
2022-09-02T23:34:33.318Z,97999.13
2022-09-02T23:36:35.181Z,98005.16
2022-09-02T23:38:41.491Z,97994.94
2022-09-02T23:40:43.019Z,97989.84
2022-09-02T23:42:44.345Z,97999.22
2022-09-02T23:44:46.141Z,97989.03
2022-09-02T23:46:47.558Z,97998.41
2022-09-02T23:48:48.943Z,97988.19
2022-09-02T23:50:50.251Z,97991.59
2022-09-02T23:52:56.488Z,97991.59
2022-09-02T23:54:57.898Z,97988.22
2022-09-02T23:56:59.198Z,97988.22
2022-09-02T23:59:00.510Z,97993.34
